Time;durP1;ratioP1;P1;durP2;ratioP2;P2;SDS_P1;SDS_P2;PMS_P1;PMS_P2;Temp;Humidity;BMP_temperature;BMP_pressure;BME280_temperature;BME280_humidity;BME280_pressure;Samples;Min_cycle;Max_cycle;Signal;HPM_P1;HPM_P2
2021/05/07 00:01:04;;;;;;;;;4.00;4.00;;;;;18.96;21.83;98504.22;5002975;28;8792;-44
2021/05/07 00:03:30;;;;;;;;;3.40;3.40;;;;;18.98;21.79;98507.38;5001174;28;8808;-45
2021/05/07 00:05:56;;;;;;;;;3.25;3.25;;;;;18.95;21.73;98503.41;5001132;28;8865;-45
2021/05/07 00:08:25;;;;;;;;;3.00;3.00;;;;;18.94;21.69;98509.22;4988543;28;11549;-46
2021/05/07 00:10:52;;;;;;;;;4.80;4.00;;;;;18.92;21.78;98513.09;4978595;28;8795;-45
2021/05/07 00:13:18;;;;;;;;;5.20;5.20;;;;;18.91;21.67;98517.00;4973127;28;8900;-45
2021/05/07 00:15:43;;;;;;;;;3.75;3.75;;;;;18.90;21.94;98520.06;4982762;28;8801;-45
2021/05/07 00:18:09;;;;;;;;;4.00;4.00;;;;;18.88;21.95;98514.97;4977445;28;9778;-45
2021/05/07 00:20:35;;;;;;;;;4.00;4.00;;;;;18.89;21.75;98522.03;4994840;28;8890;-45
2021/05/07 00:23:00;;;;;;;;;3.40;3.00;;;;;18.88;21.82;98517.69;5002331;28;8765;-46
2021/05/07 00:25:25;;;;;;;;;4.00;4.00;;;;;18.87;21.93;98524.31;4999875;28;8781;-45
2021/05/07 00:28:02;;;;;;;;;4.50;4.25;;;;;18.85;21.84;98517.59;4998267;28;8800;-45
2021/05/07 00:30:28;;;;;;;;;4.00;4.00;;;;;18.83;21.90;98519.88;5000204;28;8869;-45
2021/05/07 00:32:54;;;;;;;;;4.00;3.75;;;;;18.83;22.00;98519.88;4983116;28;8778;-45
2021/05/07 00:35:19;;;;;;;;;3.00;3.00;;;;;18.82;21.87;98524.56;4981482;28;8806;-46
2021/05/07 00:37:44;;;;;;;;;3.75;3.75;;;;;18.80;21.99;98513.13;4981249;28;8840;-45
2021/05/07 00:40:10;;;;;;;;;3.25;3.25;;;;;18.79;21.81;98514.31;4981233;28;9571;-45
2021/05/07 00:42:36;;;;;;;;;3.00;3.00;;;;;18.77;21.89;98513.88;4978010;28;8811;-45
2021/05/07 00:45:01;;;;;;;;;3.00;3.00;;;;;18.76;21.82;98515.00;4997338;28;8871;-46
2021/05/07 00:47:27;;;;;;;;;3.00;3.00;;;;;18.76;21.94;98514.22;4987165;28;9104;-45
2021/05/07 00:49:53;;;;;;;;;3.25;3.25;;;;;18.75;22.00;98513.44;4978251;28;8812;-45
2021/05/07 00:52:19;;;;;;;;;4.20;3.60;;;;;18.73;22.09;98516.50;4996335;28;8820;-46
2021/05/07 00:54:44;;;;;;;;;3.00;3.00;;;;;18.72;21.95;98516.84;4981677;28;8833;-45
2021/05/07 00:57:09;;;;;;;;;4.00;4.00;;;;;18.72;21.81;98522.31;5000337;28;8800;-46
2021/05/07 00:59:35;;;;;;;;;3.25;3.25;;;;;18.70;22.18;98514.47;5003008;28;8813;-46
2021/05/07 01:02:00;;;;;;;;;3.00;3.00;;;;;18.68;22.01;98522.22;5002215;28;8769;-46
2021/05/07 01:04:28;;;;;;;;;3.00;3.00;;;;;18.68;22.39;98524.13;4986588;28;8782;-46
2021/05/07 01:06:54;;;;;;;;;3.60;3.60;;;;;18.67;22.12;98526.06;4984973;28;8787;-46
2021/05/07 01:09:19;;;;;;;;;3.00;3.00;;;;;18.67;22.12;98525.28;4980021;28;8799;-46
2021/05/07 01:11:45;;;;;;;;;3.00;3.00;;;;;18.65;22.18;98533.84;4991761;28;8801;-46
2021/05/07 01:14:10;;;;;;;;;4.20;4.20;;;;;18.65;22.24;98533.06;4998546;28;8800;-46
2021/05/07 01:16:36;;;;;;;;;3.25;3.00;;;;;18.63;22.13;98533.41;5001071;28;8822;-46
2021/05/07 01:19:04;;;;;;;;;5.00;4.00;;;;;18.63;22.24;98532.59;5004212;28;8856;-46
2021/05/07 01:21:29;;;;;;;;;4.00;3.00;;;;;18.61;22.16;98524.75;4985448;28;8808;-46
2021/05/07 01:23:54;;;;;;;;;3.00;3.00;;;;;18.60;22.19;98531.34;4983259;28;8923;-46
2021/05/07 01:26:20;;;;;;;;;4.00;4.00;;;;;18.60;22.07;98536.03;4996524;28;8779;-46
2021/05/07 01:28:46;;;;;;;;;3.50;3.50;;;;;18.58;22.30;98530.91;5003831;28;8957;-46
2021/05/07 01:31:11;;;;;;;;;4.00;3.20;;;;;18.57;22.25;98531.25;5001505;28;8993;-45
2021/05/07 01:33:37;;;;;;;;;3.50;3.50;;;;;18.57;22.23;98532.03;4982293;28;8889;-46
2021/05/07 01:36:04;;;;;;;;;3.00;3.00;;;;;18.56;22.08;98530.47;4983469;28;8814;-46
2021/05/07 01:38:29;;;;;;;;;3.00;3.00;;;;;18.55;22.15;98539.78;4981814;28;8850;-46
2021/05/07 01:40:54;;;;;;;;;3.00;3.00;;;;;18.54;22.16;98544.47;4990430;28;8823;-46
2021/05/07 01:43:20;;;;;;;;;3.75;3.75;;;;;18.52;22.34;98535.84;4997851;28;8764;-45
2021/05/07 01:45:47;;;;;;;;;3.00;3.00;;;;;18.52;22.15;98541.28;5007551;28;8902;-46
2021/05/07 01:48:14;;;;;;;;;3.00;3.00;;;;;18.51;22.20;98536.97;4997290;28;8877;-46
2021/05/07 01:50:42;;;;;;;;;3.00;3.00;;;;;18.51;22.22;98539.69;5002924;28;8805;-46
2021/05/07 01:53:09;;;;;;;;;3.40;3.40;;;;;18.50;22.35;98537.31;5005479;28;8791;-46
2021/05/07 01:55:40;;;;;;;;;3.40;3.40;;;;;18.49;22.28;98541.97;5004546;28;8866;-46
2021/05/07 01:58:07;;;;;;;;;3.60;3.60;;;;;18.48;22.17;98545.84;5001311;28;8846;-45
2021/05/07 02:00:34;;;;;;;;;3.80;3.80;;;;;18.48;22.22;98545.06;5000188;28;8802;-46
2021/05/07 02:03:03;;;;;;;;;2.60;2.60;;;;;18.46;22.34;98542.66;5002655;28;9513;-46
2021/05/07 02:05:32;;;;;;;;;2.80;2.80;;;;;18.45;22.14;98540.28;4998694;28;8799;-46
2021/05/07 02:07:57;;;;;;;;;4.00;4.00;;;;;18.46;22.45;98542.66;5005705;28;8918;-46
2021/05/07 02:10:26;;;;;;;;;4.00;4.00;;;;;18.43;22.33;98540.63;4999919;28;8763;-46
2021/05/07 02:12:52;;;;;;;;;3.60;3.60;;;;;18.43;22.25;98546.09;5003463;28;8788;-46
2021/05/07 02:15:19;;;;;;;;;3.00;3.00;;;;;18.43;22.45;98542.56;5004525;28;8799;-46
2021/05/07 02:17:45;;;;;;;;;4.00;4.00;;;;;18.41;22.16;98542.91;4999496;28;8800;-46
2021/05/07 02:20:13;;;;;;;;;4.00;4.00;;;;;18.40;22.15;98555.00;5002962;28;8958;-46
2021/05/07 02:22:40;;;;;;;;;4.20;4.20;;;;;18.40;22.48;98549.53;5001249;28;8800;-46
2021/05/07 02:25:06;;;;;;;;;4.00;4.00;;;;;18.39;22.43;98542.47;5000219;28;8812;-46
2021/05/07 02:27:32;;;;;;;;;5.00;4.40;;;;;18.39;22.25;98549.88;5001960;28;8965;-46
2021/05/07 02:29:57;;;;;;;;;3.00;3.00;;;;;18.36;22.54;98548.63;5004914;28;8812;-46
2021/05/07 02:32:22;;;;;;;;;3.00;3.00;;;;;18.37;22.46;98554.91;5002631;28;8773;-46
2021/05/07 02:34:47;;;;;;;;;3.00;3.00;;;;;18.35;22.26;98555.25;5002020;28;9525;-46
2021/05/07 02:37:13;;;;;;;;;3.00;3.00;;;;;18.34;22.34;98562.63;5000997;28;8888;-46
2021/05/07 02:39:38;;;;;;;;;4.00;4.00;;;;;18.33;22.29;98566.50;5006761;28;8817;-45
2021/05/07 02:42:04;;;;;;;;;4.00;4.00;;;;;18.33;22.46;98568.44;5004383;28;8784;-46
2021/05/07 02:44:29;;;;;;;;;4.00;4.00;;;;;18.32;22.35;98566.84;5005266;28;8792;-46
2021/05/07 02:47:02;;;;;;;;;5.00;5.00;;;;;18.31;22.52;98567.97;5004110;28;9552;-46
2021/05/07 02:49:28;;;;;;;;;3.80;3.80;;;;;18.30;22.46;98566.41;4994212;28;8759;-46
2021/05/07 02:51:53;;;;;;;;;2.50;2.50;;;;;18.29;22.36;98567.53;4984152;28;8849;-45
2021/05/07 02:54:19;;;;;;;;;3.25;3.00;;;;;18.28;22.47;98572.19;4985915;28;8939;-46
2021/05/07 02:56:44;;;;;;;;;3.25;3.25;;;;;18.27;22.45;98573.31;4997481;28;8798;-46
2021/05/07 02:59:14;;;;;;;;;3.00;3.00;;;;;18.26;22.42;98574.47;5004060;28;8772;-46
2021/05/07 03:01:39;;;;;;;;;4.00;3.40;;;;;18.26;22.56;98581.88;5005701;28;8892;-46
2021/05/07 03:04:05;;;;;;;;;4.00;4.00;;;;;18.25;22.43;98577.56;5001594;28;8906;-49
2021/05/07 03:06:31;;;;;;;;;3.60;3.60;;;;;18.25;22.48;98575.63;4984430;28;8801;-46
2021/05/07 03:08:56;;;;;;;;;4.00;3.00;;;;;18.25;22.46;98585.75;5002205;28;8874;-46
2021/05/07 03:11:21;;;;;;;;;4.00;4.00;;;;;18.23;22.53;98574.38;4989294;28;8920;-46
2021/05/07 03:13:47;;;;;;;;;3.00;3.00;;;;;18.22;22.69;98583.69;4979357;28;8787;-46
2021/05/07 03:16:12;;;;;;;;;3.00;3.00;;;;;18.22;22.45;98586.44;4980005;28;8811;-45
2021/05/07 03:18:37;;;;;;;;;3.50;3.25;;;;;18.21;22.71;98582.13;4986640;28;8912;-46
2021/05/07 03:21:03;;;;;;;;;4.00;4.00;;;;;18.20;22.57;98585.97;4983082;28;8795;-45
2021/05/07 03:23:28;;;;;;;;;3.00;3.00;;;;;18.19;22.54;98585.19;4982597;28;8807;-46
2021/05/07 03:25:53;;;;;;;;;3.00;3.00;;;;;18.17;22.56;98590.22;4981274;28;8779;-46
2021/05/07 03:28:19;;;;;;;;;4.00;4.00;;;;;18.17;22.55;98591.00;4980574;28;8845;-46
2021/05/07 03:30:44;;;;;;;;;3.00;3.00;;;;;18.17;22.54;98590.22;4975002;28;8900;-46
2021/05/07 03:33:10;;;;;;;;;3.50;3.50;;;;;18.14;22.69;98594.41;4980595;28;8797;-46
2021/05/07 03:35:36;;;;;;;;;3.50;3.50;;;;;18.15;22.65;98592.47;4993159;28;8966;-46
2021/05/07 03:38:02;;;;;;;;;3.00;3.00;;;;;18.14;22.58;98594.41;4996823;28;9112;-46
2021/05/07 03:40:29;;;;;;;;;4.00;4.00;;;;;18.14;22.62;98596.34;4996632;28;8794;-46
2021/05/07 03:42:54;;;;;;;;;3.00;3.00;;;;;18.13;22.70;98594.75;4981217;28;8849;-46
2021/05/07 03:45:20;;;;;;;;;3.00;3.00;;;;;18.10;22.71;98596.25;4981142;28;9594;-46
2021/05/07 03:47:45;;;;;;;;;4.00;4.00;;;;;18.10;22.63;98593.50;4978450;28;8811;-46
2021/05/07 03:50:11;;;;;;;;;3.75;3.00;;;;;18.09;22.79;98600.09;4993749;28;8804;-46
2021/05/07 03:52:37;;;;;;;;;4.00;4.00;;;;;18.09;22.58;98600.09;4999636;28;8759;-45
2021/05/07 03:55:05;;;;;;;;;4.40;4.00;;;;;18.08;22.78;98603.16;4985090;28;8827;-46
2021/05/07 03:57:31;;;;;;;;;4.00;4.00;;;;;18.08;22.73;98603.97;4978350;28;8868;-46
2021/05/07 03:59:56;;;;;;;;;5.00;4.00;;;;;18.08;22.82;98603.97;4974625;28;8809;-46
2021/05/07 04:02:23;;;;;;;;;3.00;3.00;;;;;18.07;22.65;98604.31;4980106;28;8848;-46
2021/05/07 04:04:50;;;;;;;;;3.20;3.20;;;;;18.05;22.61;98601.13;4985139;28;8776;-46
2021/05/07 04:07:16;;;;;;;;;4.00;4.00;;;;;18.06;22.51;98611.69;4999642;28;8903;-45
2021/05/07 04:09:46;;;;;;;;;4.00;4.00;;;;;18.05;22.73;98610.13;4984678;28;8842;-45
2021/05/07 04:12:22;;;;;;;;;3.00;3.00;;;;;18.05;22.80;98612.84;4979019;28;9538;-46
2021/05/07 04:14:48;;;;;;;;;3.60;3.60;;;;;18.03;22.56;98617.03;4995151;28;8881;-46
2021/05/07 04:17:13;;;;;;;;;3.00;3.00;;;;;18.02;22.61;98618.97;4992716;28;8782;-46
2021/05/07 04:19:38;;;;;;;;;3.00;3.00;;;;;18.02;22.82;98623.66;4983533;28;8921;-46
2021/05/07 04:22:04;;;;;;;;;4.00;4.00;;;;;18.02;22.76;98634.56;4985107;28;8814;-45
2021/05/07 04:24:29;;;;;;;;;4.00;4.00;;;;;18.01;22.55;98631.03;5006253;28;8792;-46
2021/05/07 04:26:54;;;;;;;;;3.50;3.50;;;;;18.01;22.49;98632.97;4998939;28;8792;-45
2021/05/07 04:29:24;;;;;;;;;4.50;4.50;;;;;17.99;22.78;98633.28;4985396;28;8941;-46
2021/05/07 04:31:49;;;;;;;;;3.00;3.00;;;;;17.98;22.65;98631.72;4980044;28;9672;-46
2021/05/07 04:34:15;;;;;;;;;4.75;4.25;;;;;17.96;22.69;98637.50;4979914;28;8799;-46
2021/05/07 04:36:40;;;;;;;;;3.50;3.50;;;;;17.96;22.72;98632.06;4972521;28;11086;-45
2021/05/07 04:39:07;;;;;;;;;4.50;4.25;;;;;17.95;22.92;98644.09;4983196;28;9010;-46
2021/05/07 04:41:33;;;;;;;;;4.00;4.00;;;;;17.96;22.82;98642.19;4981816;28;8803;-46
2021/05/07 04:43:59;;;;;;;;;3.00;3.00;;;;;17.94;22.92;98638.97;4984147;28;8819;-45
2021/05/07 04:46:24;;;;;;;;;3.75;3.75;;;;;17.93;22.95;98645.59;4998447;28;8794;-46
2021/05/07 04:48:49;;;;;;;;;3.00;3.00;;;;;17.92;22.78;98650.25;5006823;28;9564;-46
2021/05/07 04:51:14;;;;;;;;;4.00;4.00;;;;;17.91;22.88;98643.19;5009299;28;8809;-46
2021/05/07 04:53:40;;;;;;;;;4.00;3.00;;;;;17.91;22.99;98645.13;5005103;28;8808;-46
2021/05/07 04:56:05;;;;;;;;;3.75;3.75;;;;;17.90;22.92;98649.00;5001755;28;8889;-46
2021/05/07 04:58:30;;;;;;;;;4.00;4.00;;;;;17.89;23.05;98650.94;4996161;28;9591;-46
2021/05/07 05:00:56;;;;;;;;;4.50;4.50;;;;;17.89;22.86;98652.88;5008285;28;8808;-46
2021/05/07 05:03:21;;;;;;;;;4.00;4.00;;;;;17.88;22.78;98648.53;5000027;28;8791;-46
2021/05/07 05:05:46;;;;;;;;;3.00;3.00;;;;;17.87;23.08;98655.94;4999972;28;8772;-46
2021/05/07 05:08:12;;;;;;;;;3.25;3.25;;;;;17.87;23.17;98666.03;5007720;28;8768;-46
2021/05/07 05:10:37;;;;;;;;;4.75;4.75;;;;;17.86;23.04;98667.19;5006115;28;8769;-46
2021/05/07 05:13:02;;;;;;;;;5.00;5.00;;;;;17.86;23.10;98667.19;4998954;28;8828;-46
2021/05/07 05:15:27;;;;;;;;;5.00;4.25;;;;;17.85;22.91;98665.56;5004629;28;8920;-46
2021/05/07 05:17:53;;;;;;;;;4.00;4.00;;;;;17.85;22.88;98671.00;5002112;28;8835;-47
2021/05/07 05:20:18;;;;;;;;;4.00;4.00;;;;;17.84;22.96;98672.16;5003036;28;8909;-46
2021/05/07 05:22:44;;;;;;;;;4.00;4.00;;;;;17.83;22.98;98670.56;5000847;28;8787;-46
2021/05/07 05:25:09;;;;;;;;;3.50;3.50;;;;;17.82;23.00;98669.78;5004489;28;8780;-46
2021/05/07 05:27:36;;;;;;;;;3.25;3.00;;;;;17.82;23.08;98672.50;5005925;28;8792;-46
2021/05/07 05:30:03;;;;;;;;;3.40;3.40;;;;;17.81;22.98;98670.91;5003566;28;11484;-46
2021/05/07 05:32:28;;;;;;;;;3.60;3.60;;;;;17.79;23.03;98670.44;5001470;28;8800;-46
2021/05/07 05:34:53;;;;;;;;;3.00;3.00;;;;;17.78;23.08;98672.38;5003010;28;8863;-47
2021/05/07 05:37:20;;;;;;;;;3.00;3.00;;;;;17.77;23.08;98676.22;5001201;28;8795;-46
2021/05/07 05:39:45;;;;;;;;;3.80;3.80;;;;;17.76;23.01;98676.56;5002272;28;8808;-46
2021/05/07 05:42:12;;;;;;;;;4.00;4.00;;;;;17.76;23.02;98677.38;5001351;28;8830;-46
2021/05/07 05:44:37;;;;;;;;;3.00;3.00;;;;;17.76;23.07;98682.84;4996781;28;8831;-46
2021/05/07 05:47:02;;;;;;;;;3.25;3.25;;;;;17.75;22.98;98681.25;5000260;28;8810;-46
2021/05/07 05:49:28;;;;;;;;;4.00;4.00;;;;;17.75;23.04;98675.00;4997287;28;8843;-47
2021/05/07 05:51:53;;;;;;;;;3.75;3.75;;;;;17.74;23.07;98682.34;4996974;28;8800;-46
2021/05/07 05:54:18;;;;;;;;;3.00;3.00;;;;;17.74;23.07;98687.81;5002634;28;8822;-46
2021/05/07 05:56:46;;;;;;;;;3.00;3.00;;;;;17.73;22.99;98686.25;4998682;28;8935;-46
2021/05/07 05:59:12;;;;;;;;;3.40;3.40;;;;;17.73;23.20;98694.41;4998552;28;8819;-47
2021/05/07 06:01:37;;;;;;;;;3.25;3.25;;;;;17.62;24.02;98687.00;5013906;28;8808;-46
2021/05/07 06:04:03;;;;;;;;;3.75;3.75;;;;;17.65;24.37;98695.31;4995801;28;11881;-46
2021/05/07 06:06:28;;;;;;;;;3.25;3.25;;;;;17.69;23.86;98696.22;4998458;28;8798;-46
2021/05/07 06:08:53;;;;;;;;;4.50;3.75;;;;;17.70;24.09;98692.38;4991591;28;8800;-46
2021/05/07 06:11:19;;;;;;;;;3.00;3.00;;;;;17.70;23.79;98691.56;4995036;28;8865;-47
2021/05/07 06:13:44;;;;;;;;;3.00;3.00;;;;;17.71;23.84;98695.88;4999924;28;8784;-46
2021/05/07 06:16:09;;;;;;;;;4.00;4.00;;;;;17.69;23.55;98696.22;5000527;28;8816;-46
2021/05/07 06:18:35;;;;;;;;;4.00;4.00;;;;;17.67;23.56;98693.03;5001097;28;8865;-46
2021/05/07 06:21:00;;;;;;;;;4.00;4.00;;;;;17.67;23.47;98697.69;5001577;28;8986;-47
2021/05/07 06:23:26;;;;;;;;;4.00;4.00;;;;;17.67;23.38;98693.03;5001447;28;11913;-47
2021/05/07 06:25:51;;;;;;;;;3.00;3.00;;;;;17.66;23.35;98696.91;5002204;28;8792;-48
2021/05/07 06:28:17;;;;;;;;;3.00;3.00;;;;;17.67;23.38;98697.69;4999509;28;8799;-48
2021/05/07 06:30:43;;;;;;;;;4.00;4.00;;;;;17.66;23.45;98701.56;5000848;28;8923;-49
2021/05/07 06:33:08;;;;;;;;;5.50;5.50;;;;;17.64;23.58;98695.63;4982647;28;8968;-48
2021/05/07 06:35:33;;;;;;;;;3.75;3.75;;;;;17.64;23.54;98707.34;4994764;28;8826;-46
2021/05/07 06:38:01;;;;;;;;;4.00;4.00;;;;;17.63;23.19;98703.03;5000708;28;8860;-46
2021/05/07 06:40:26;;;;;;;;;3.00;3.00;;;;;17.64;23.41;98707.34;5000594;28;8857;-46
2021/05/07 06:42:52;;;;;;;;;3.00;3.00;;;;;17.63;23.41;98703.03;5005697;28;8792;-46
2021/05/07 06:45:18;;;;;;;;;3.75;3.75;;;;;17.63;23.42;98707.69;4980613;28;8990;-46
2021/05/07 06:47:43;;;;;;;;;3.00;3.00;;;;;17.63;23.42;98716.66;4973256;28;8925;-46
2021/05/07 06:50:11;;;;;;;;;2.50;2.50;;;;;17.62;23.33;98717.00;4986498;28;8822;-46
2021/05/07 06:52:37;;;;;;;;;3.60;3.60;;;;;17.62;23.36;98717.00;4978981;28;8786;-46
2021/05/07 06:55:03;;;;;;;;;3.00;3.00;;;;;17.61;23.49;98721.66;4982207;28;9785;-45
2021/05/07 06:57:28;;;;;;;;;4.40;4.40;;;;;17.60;23.42;98714.59;4983408;28;8818;-46
2021/05/07 06:59:54;;;;;;;;;3.00;3.00;;;;;17.59;23.45;98713.81;4996699;28;8890;-46
2021/05/07 07:02:19;;;;;;;;;4.00;4.00;;;;;17.59;23.48;98719.28;4996816;28;8848;-46
2021/05/07 07:04:45;;;;;;;;;3.50;3.50;;;;;17.58;23.45;98714.94;4999127;28;8784;-46
2021/05/07 07:07:15;;;;;;;;;3.80;3.80;;;;;17.58;23.36;98722.34;4994587;28;8811;-46
2021/05/07 07:09:41;;;;;;;;;3.60;3.60;;;;;17.58;23.38;98719.59;5004715;28;8938;-45
2021/05/07 07:12:07;;;;;;;;;4.00;4.00;;;;;17.57;23.57;98721.53;4983488;28;8941;-46
2021/05/07 07:14:39;;;;;;;;;4.00;4.00;;;;;17.56;23.41;98719.16;4990502;28;8793;-46
2021/05/07 07:17:06;;;;;;;;;3.00;3.00;;;;;17.56;23.50;98727.34;4988717;28;8821;-46
2021/05/07 07:19:32;;;;;;;;;4.00;4.00;;;;;17.56;23.50;98727.34;4983282;28;8763;-46
2021/05/07 07:21:58;;;;;;;;;4.00;4.00;;;;;17.55;23.43;98726.53;4983913;28;8799;-46
2021/05/07 07:24:24;;;;;;;;;3.60;3.60;;;;;17.55;23.39;98720.28;5002852;28;8808;-46
2021/05/07 07:26:49;;;;;;;;;3.20;3.20;;;;;17.55;23.65;98725.72;4999539;28;8781;-46
2021/05/07 07:29:15;;;;;;;;;2.50;2.50;;;;;17.53;23.57;98719.81;4993936;28;8865;-46
2021/05/07 07:31:40;;;;;;;;;3.00;3.00;;;;;17.53;23.67;98728.78;4982907;28;8787;-46
2021/05/07 07:34:05;;;;;;;;;3.00;3.00;;;;;17.53;23.59;98725.28;4980066;28;8779;-46
2021/05/07 07:36:31;;;;;;;;;4.00;4.00;;;;;17.53;23.59;98719.81;4982738;28;8839;-46
2021/05/07 07:38:56;;;;;;;;;4.00;4.00;;;;;17.52;23.61;98734.56;4975611;28;8846;-46
2021/05/07 07:41:22;;;;;;;;;3.00;3.00;;;;;17.51;23.48;98724.81;4980017;28;8867;-46
2021/05/07 07:43:48;;;;;;;;;2.00;2.00;;;;;17.51;23.63;98727.53;4987397;28;8820;-46
2021/05/07 07:46:13;;;;;;;;;3.20;3.20;;;;;17.50;23.41;98731.38;4998088;28;8805;-46
2021/05/07 07:48:39;;;;;;;;;2.25;2.25;;;;;17.50;23.64;98725.94;4983421;28;8868;-46
2021/05/07 07:51:04;;;;;;;;;3.00;3.00;;;;;17.44;23.50;98713.66;4983418;28;8802;-46
2021/05/07 07:53:29;;;;;;;;;2.75;2.75;;;;;17.49;23.56;98725.16;4981288;28;8811;-46
2021/05/07 07:55:55;;;;;;;;;3.25;3.25;;;;;17.48;23.52;98728.22;4985703;28;8844;-46
2021/05/07 07:58:20;;;;;;;;;3.25;3.25;;;;;17.47;23.56;98727.41;5002855;28;8802;-46
2021/05/07 08:00:47;;;;;;;;;3.25;3.25;;;;;17.48;23.50;98725.47;5002603;28;8804;-46
2021/05/07 08:03:12;;;;;;;;;3.40;2.80;;;;;17.47;23.45;98727.41;4977296;28;9527;-46
2021/05/07 08:05:37;;;;;;;;;3.50;3.50;;;;;17.47;23.77;98718.44;4982440;28;8817;-46
2021/05/07 08:08:03;;;;;;;;;3.75;3.00;;;;;17.47;23.53;98729.34;4988679;28;8818;-45
2021/05/07 08:10:29;;;;;;;;;3.80;3.80;;;;;17.46;23.77;98730.47;4998097;28;8784;-46
2021/05/07 08:12:54;;;;;;;;;3.00;3.00;;;;;17.45;23.72;98726.16;4999668;28;8808;-46
2021/05/07 08:15:20;;;;;;;;;3.00;3.00;;;;;17.43;23.74;98729.22;4977543;28;8827;-46
2021/05/07 08:17:47;;;;;;;;;4.00;3.80;;;;;17.44;23.75;98728.09;4979878;28;9818;-46
2021/05/07 08:20:14;;;;;;;;;2.00;2.00;;;;;17.44;23.58;98732.75;4977993;28;8778;-47
2021/05/07 08:22:39;;;;;;;;;3.20;3.00;;;;;17.43;23.91;98729.22;4983646;28;8800;-46
2021/05/07 08:25:05;;;;;;;;;3.00;3.00;;;;;17.42;23.69;98728.41;5001144;28;8915;-46
2021/05/07 08:27:30;;;;;;;;;3.00;3.00;;;;;17.42;23.84;98731.16;4977906;28;8914;-47
2021/05/07 08:29:56;;;;;;;;;3.25;3.25;;;;;17.42;23.73;98735.81;4974828;28;9554;-46
2021/05/07 08:32:22;;;;;;;;;3.75;3.00;;;;;17.42;23.74;98733.09;4993604;28;9227;-46
2021/05/07 08:34:47;;;;;;;;;4.00;4.00;;;;;17.41;23.86;98734.19;4994229;28;8807;-46
2021/05/07 08:37:13;;;;;;;;;3.00;3.00;;;;;17.41;23.62;98731.47;4981405;28;8814;-46
2021/05/07 08:39:39;;;;;;;;;3.00;3.00;;;;;17.41;23.94;98736.94;4984443;28;8830;-46
2021/05/07 08:42:09;;;;;;;;;2.80;2.80;;;;;17.40;23.88;98738.88;4994669;28;8792;-47
2021/05/07 08:44:35;;;;;;;;;3.00;3.00;;;;;17.41;23.80;98736.94;4998473;28;8831;-46
2021/05/07 08:47:01;;;;;;;;;3.00;3.00;;;;;17.40;23.88;98738.88;4994620;28;8901;-47
2021/05/07 08:49:28;;;;;;;;;3.00;3.00;;;;;17.39;23.80;98742.72;5001322;28;8788;-46
2021/05/07 08:51:58;;;;;;;;;3.00;3.00;;;;;17.40;23.97;98748.97;5005789;28;8784;-46
2021/05/07 08:54:27;;;;;;;;;2.00;2.00;;;;;17.39;23.80;98742.72;4990994;28;8818;-47
2021/05/07 08:56:52;;;;;;;;;3.40;3.00;;;;;17.39;23.89;98745.44;5001080;28;8799;-47
2021/05/07 08:59:18;;;;;;;;;4.00;4.00;;;;;17.38;23.87;98737.63;5001133;28;8800;-46
2021/05/07 09:01:46;;;;;;;;;2.50;2.50;;;;;17.37;23.88;98739.53;4995704;28;8795;-47
2021/05/07 09:04:13;;;;;;;;;2.80;2.80;;;;;17.37;23.84;98755.88;4982188;28;8810;-46
2021/05/07 09:06:50;;;;;;;;;3.20;3.20;;;;;17.35;23.86;98744.53;5001629;28;8816;-46
2021/05/07 09:09:26;;;;;;;;;2.00;2.00;;;;;17.34;23.75;98745.66;4998583;28;9370;-47
2021/05/07 09:11:52;;;;;;;;;2.60;2.60;;;;;17.36;24.10;98754.31;4997938;28;8789;-47
2021/05/07 09:14:19;;;;;;;;;3.60;3.20;;;;;17.36;23.90;98745.31;5002486;28;8887;-46
2021/05/07 09:16:50;;;;;;;;;3.00;3.00;;;;;17.34;23.81;98750.31;5003081;28;8778;-46
2021/05/07 09:19:37;;;;;;;;;3.00;3.00;;;;;17.33;23.97;98743.28;4997844;28;8847;-47
2021/05/07 09:22:03;;;;;;;;;3.80;3.80;;;;;17.34;24.05;98744.84;4995094;28;8816;-46
2021/05/07 09:24:37;;;;;;;;;3.00;3.00;;;;;17.33;24.05;98746.78;4985087;28;8807;-46
2021/05/07 09:27:04;;;;;;;;;3.00;3.00;;;;;17.33;23.73;98749.53;4982732;28;10700;-46
2021/05/07 09:29:31;;;;;;;;;4.00;4.00;;;;;17.33;23.79;98743.28;4993187;28;8830;-46
2021/05/07 09:32:00;;;;;;;;;4.00;3.80;;;;;17.31;23.78;98740.88;5000094;28;8791;-46
2021/05/07 09:34:27;;;;;;;;;3.80;3.80;;;;;17.32;23.84;98745.19;4991370;28;8769;-47
2021/05/07 09:36:52;;;;;;;;;3.00;3.00;;;;;17.32;23.86;98749.84;4985362;28;8786;-46
2021/05/07 09:39:22;;;;;;;;;3.25;3.00;;;;;17.30;23.92;98750.19;5002465;28;8895;-47
2021/05/07 09:41:52;;;;;;;;;4.00;4.00;;;;;17.30;23.89;98752.91;5003680;28;8765;-47
2021/05/07 09:44:18;;;;;;;;;3.00;3.00;;;;;17.31;24.03;98757.25;5005163;28;8986;-46
2021/05/07 09:46:44;;;;;;;;;2.50;2.50;;;;;17.30;24.03;98752.13;5003249;28;9635;-46
2021/05/07 09:49:21;;;;;;;;;3.00;3.00;;;;;17.29;23.96;98748.59;5002319;28;8805;-46
2021/05/07 09:51:46;;;;;;;;;2.80;2.80;;;;;17.29;24.07;98754.06;4986680;28;8803;-46
2021/05/07 09:54:12;;;;;;;;;3.00;3.00;;;;;17.27;23.98;98748.13;4984515;28;8854;-47
2021/05/07 09:56:37;;;;;;;;;3.00;3.00;;;;;17.28;24.13;98748.94;4983799;28;8799;-47
2021/05/07 09:59:04;;;;;;;;;3.00;3.00;;;;;17.27;24.01;98747.31;4985368;28;8802;-46
2021/05/07 10:01:30;;;;;;;;;3.20;3.20;;;;;17.26;23.95;98749.25;4984080;28;8925;-46
2021/05/07 10:03:57;;;;;;;;;4.00;4.00;;;;;17.27;23.92;98750.06;4983450;28;8819;-46
2021/05/07 10:06:23;;;;;;;;;3.00;2.80;;;;;17.27;23.97;98755.50;5003982;28;8886;-46
2021/05/07 10:08:49;;;;;;;;;3.00;3.00;;;;;17.25;23.92;98755.84;4984813;28;8819;-47
2021/05/07 10:11:16;;;;;;;;;3.00;3.00;;;;;17.25;24.06;98755.84;4982389;28;11600;-47
2021/05/07 10:13:42;;;;;;;;;3.20;3.00;;;;;17.23;24.06;98760.81;4981049;28;8980;-46
2021/05/07 10:16:09;;;;;;;;;3.00;3.00;;;;;17.23;24.14;98753.44;4983428;28;8835;-46
2021/05/07 10:18:38;;;;;;;;;2.40;2.40;;;;;17.23;24.10;98753.44;5007840;28;9595;-47
2021/05/07 10:21:09;;;;;;;;;3.00;3.00;;;;;17.23;24.03;98752.66;5006327;28;9995;-46
2021/05/07 10:23:35;;;;;;;;;3.00;3.00;;;;;17.24;24.04;98748.81;4991165;28;8845;-46
2021/05/07 10:26:09;;;;;;;;;3.00;3.00;;;;;17.23;24.02;98752.66;4980966;28;8791;-47
2021/05/07 10:28:45;;;;;;;;;2.60;2.60;;;;;17.22;24.13;98746.41;4981194;28;8783;-47
2021/05/07 10:31:13;;;;;;;;;3.00;3.00;;;;;17.21;24.09;98757.63;4982610;28;8902;-46
2021/05/07 10:33:38;;;;;;;;;2.80;2.80;;;;;17.21;23.95;98752.97;5005425;28;8792;-47
2021/05/07 10:36:04;;;;;;;;;2.00;2.00;;;;;17.21;23.80;98757.63;4987412;28;9559;-46
2021/05/07 10:38:30;;;;;;;;;3.00;3.00;;;;;17.21;24.15;98768.53;4992380;28;8835;-47
2021/05/07 10:41:08;;;;;;;;;3.00;3.00;;;;;17.19;24.19;98759.91;4995386;28;8783;-46
2021/05/07 10:43:45;;;;;;;;;3.00;3.00;;;;;17.20;24.10;98761.47;4985540;28;8759;-46
2021/05/07 10:46:23;;;;;;;;;3.00;3.00;;;;;17.20;23.85;98764.22;4984118;28;8818;-46
2021/05/07 10:48:56;;;;;;;;;3.20;3.20;;;;;17.20;24.16;98756.84;4988056;28;8791;-46
2021/05/07 10:51:25;;;;;;;;;3.60;3.60;;;;;17.19;24.03;98751.72;4985201;28;8902;-46
2021/05/07 10:54:10;;;;;;;;;3.00;3.00;;;;;17.19;24.08;98754.47;4985727;28;8806;-46
2021/05/07 10:56:38;;;;;;;;;2.00;2.00;;;;;17.18;24.21;98742.78;4977635;28;9574;-47
2021/05/07 10:59:20;;;;;;;;;3.00;2.80;;;;;17.18;24.16;98758.31;4979575;28;8989;-46
2021/05/07 11:02:03;;;;;;;;;4.00;4.00;;;;;17.18;23.92;98753.66;4980303;28;8795;-46
2021/05/07 11:04:44;;;;;;;;;3.00;3.00;;;;;17.17;24.02;98745.81;4982260;28;8775;-46
2021/05/07 11:07:10;;;;;;;;;2.60;2.60;;;;;17.17;24.18;98745.81;4980997;28;8817;-46
2021/05/07 11:09:36;;;;;;;;;3.20;3.20;;;;;17.18;24.06;98763.75;4980821;28;8805;-47
2021/05/07 11:12:04;;;;;;;;;3.00;3.00;;;;;17.17;23.96;98751.28;4981031;28;8864;-47
2021/05/07 11:14:34;;;;;;;;;2.40;2.40;;;;;17.16;24.03;98755.91;4999020;28;8791;-46
2021/05/07 11:17:03;;;;;;;;;2.20;2.20;;;;;17.17;24.13;98751.28;5001418;28;8780;-46
2021/05/07 11:19:31;;;;;;;;;3.40;3.40;;;;;17.16;23.97;98755.13;5003940;28;8780;-46
2021/05/07 11:22:01;;;;;;;;;3.00;3.00;;;;;17.14;24.21;98751.94;5006546;28;8819;-46
2021/05/07 11:24:35;;;;;;;;;2.00;2.00;;;;;17.15;24.28;98732.53;5002807;28;8832;-47
2021/05/07 11:27:27;;;;;;;;;3.00;3.00;;;;;17.13;24.12;98759.31;5001939;28;8787;-46
2021/05/07 11:30:13;;;;;;;;;3.00;3.00;;;;;17.13;24.29;98763.94;5003625;28;8776;-46
2021/05/07 11:32:38;;;;;;;;;2.00;2.00;;;;;17.13;24.29;98766.69;5002659;28;8873;-47
2021/05/07 11:35:09;;;;;;;;;3.00;3.00;;;;;17.12;24.18;98767.81;4997413;28;8783;-46
2021/05/07 11:37:38;;;;;;;;;2.60;2.00;;;;;17.12;24.25;98776.00;4991962;28;9009;-46
2021/05/07 11:40:10;;;;;;;;;2.40;2.00;;;;;17.11;24.15;98767.00;4993824;28;8842;-46